sensor_id;sensor_type;location;lat;lon;timestamp;temperature;humidity
25046;DHT22;13044;49.304;12.840;2023-07-30T00:02:22;19.70;99.90
25046;DHT22;13044;49.304;12.840;2023-07-30T00:04:49;19.70;99.90
25046;DHT22;13044;49.304;12.840;2023-07-30T00:07:16;19.70;99.90
25046;DHT22;13044;49.304;12.840;2023-07-30T00:09:43;19.60;99.90
25046;DHT22;13044;49.304;12.840;2023-07-30T00:12:10;19.60;99.90
25046;DHT22;13044;49.304;12.840;2023-07-30T00:14:37;19.60;99.90
25046;DHT22;13044;49.304;12.840;2023-07-30T00:17:04;19.50;99.90
25046;DHT22;13044;49.304;12.840;2023-07-30T00:19:31;19.50;99.90
25046;DHT22;13044;49.304;12.840;2023-07-30T00:21:58;19.50;99.90
25046;DHT22;13044;49.304;12.840;2023-07-30T00:24:25;19.50;99.90
25046;DHT22;13044;49.304;12.840;2023-07-30T00:26:51;19.50;99.90
25046;DHT22;13044;49.304;12.840;2023-07-30T00:29:18;19.50;99.90
25046;DHT22;13044;49.304;12.840;2023-07-30T00:31:46;19.50;99.90
25046;DHT22;13044;49.304;12.840;2023-07-30T00:34:13;19.40;99.90
25046;DHT22;13044;49.304;12.840;2023-07-30T00:36:40;19.40;99.90
25046;DHT22;13044;49.304;12.840;2023-07-30T00:39:07;19.40;99.90
25046;DHT22;13044;49.304;12.840;2023-07-30T00:41:34;19.40;99.90
25046;DHT22;13044;49.304;12.840;2023-07-30T00:44:01;19.30;99.90
25046;DHT22;13044;49.304;12.840;2023-07-30T00:46:28;19.30;99.90
25046;DHT22;13044;49.304;12.840;2023-07-30T00:48:55;19.20;99.90
25046;DHT22;13044;49.304;12.840;2023-07-30T00:51:22;19.20;99.90
25046;DHT22;13044;49.304;12.840;2023-07-30T00:53:50;19.20;99.90
25046;DHT22;13044;49.304;12.840;2023-07-30T00:56:17;19.20;99.90
25046;DHT22;13044;49.304;12.840;2023-07-30T00:58:44;19.20;99.90
25046;DHT22;13044;49.304;12.840;2023-07-30T01:01:13;19.20;99.90
25046;DHT22;13044;49.304;12.840;2023-07-30T01:03:40;19.20;99.90
25046;DHT22;13044;49.304;12.840;2023-07-30T01:06:07;19.20;99.90
25046;DHT22;13044;49.304;12.840;2023-07-30T01:08:34;19.20;99.90
25046;DHT22;13044;49.304;12.840;2023-07-30T01:11:03;19.20;99.90
25046;DHT22;13044;49.304;12.840;2023-07-30T01:13:31;19.20;99.90
25046;DHT22;13044;49.304;12.840;2023-07-30T01:15:58;19.30;99.90
25046;DHT22;13044;49.304;12.840;2023-07-30T01:18:25;19.30;99.90
25046;DHT22;13044;49.304;12.840;2023-07-30T01:20:59;19.30;99.90
25046;DHT22;13044;49.304;12.840;2023-07-30T01:23:26;19.30;99.90
25046;DHT22;13044;49.304;12.840;2023-07-30T01:26:03;19.30;99.90
25046;DHT22;13044;49.304;12.840;2023-07-30T01:28:38;19.30;99.90
25046;DHT22;13044;49.304;12.840;2023-07-30T01:31:16;19.30;99.90
25046;DHT22;13044;49.304;12.840;2023-07-30T01:33:46;19.30;99.90
25046;DHT22;13044;49.304;12.840;2023-07-30T01:36:15;19.30;99.90
25046;DHT22;13044;49.304;12.840;2023-07-30T01:38:43;19.30;99.90
25046;DHT22;13044;49.304;12.840;2023-07-30T01:41:10;19.30;99.90
25046;DHT22;13044;49.304;12.840;2023-07-30T01:43:37;19.30;99.90
25046;DHT22;13044;49.304;12.840;2023-07-30T01:46:04;19.30;99.90
25046;DHT22;13044;49.304;12.840;2023-07-30T01:48:31;19.30;99.90
25046;DHT22;13044;49.304;12.840;2023-07-30T01:50:58;19.30;99.90
25046;DHT22;13044;49.304;12.840;2023-07-30T01:53:25;19.30;99.90
25046;DHT22;13044;49.304;12.840;2023-07-30T01:55:52;19.40;99.90
25046;DHT22;13044;49.304;12.840;2023-07-30T01:58:18;19.30;99.90
25046;DHT22;13044;49.304;12.840;2023-07-30T02:00:45;19.30;99.90
25046;DHT22;13044;49.304;12.840;2023-07-30T02:03:13;19.40;99.90
25046;DHT22;13044;49.304;12.840;2023-07-30T02:05:40;19.30;99.90
25046;DHT22;13044;49.304;12.840;2023-07-30T02:08:07;19.30;99.90
25046;DHT22;13044;49.304;12.840;2023-07-30T02:10:34;19.30;99.90
25046;DHT22;13044;49.304;12.840;2023-07-30T02:13:01;19.30;99.90
25046;DHT22;13044;49.304;12.840;2023-07-30T02:15:28;19.30;99.90
25046;DHT22;13044;49.304;12.840;2023-07-30T02:17:54;19.30;99.90
25046;DHT22;13044;49.304;12.840;2023-07-30T02:20:22;19.30;99.90
25046;DHT22;13044;49.304;12.840;2023-07-30T02:22:48;19.40;99.90
25046;DHT22;13044;49.304;12.840;2023-07-30T02:25:15;19.40;99.90
25046;DHT22;13044;49.304;12.840;2023-07-30T02:27:42;19.40;99.90
25046;DHT22;13044;49.304;12.840;2023-07-30T02:30:09;19.40;99.90
25046;DHT22;13044;49.304;12.840;2023-07-30T02:32:37;19.40;99.90
25046;DHT22;13044;49.304;12.840;2023-07-30T02:35:04;19.40;99.90
25046;DHT22;13044;49.304;12.840;2023-07-30T02:37:31;19.50;99.90
25046;DHT22;13044;49.304;12.840;2023-07-30T02:39:58;19.50;99.90
25046;DHT22;13044;49.304;12.840;2023-07-30T02:42:26;19.50;99.90
25046;DHT22;13044;49.304;12.840;2023-07-30T02:44:53;19.50;99.90
25046;DHT22;13044;49.304;12.840;2023-07-30T02:47:19;19.50;99.90
25046;DHT22;13044;49.304;12.840;2023-07-30T02:49:46;19.50;99.90
25046;DHT22;13044;49.304;12.840;2023-07-30T02:52:13;19.50;99.90
25046;DHT22;13044;49.304;12.840;2023-07-30T02:54:40;19.50;99.90
25046;DHT22;13044;49.304;12.840;2023-07-30T02:57:07;19.50;99.90
25046;DHT22;13044;49.304;12.840;2023-07-30T02:59:34;19.50;99.90
25046;DHT22;13044;49.304;12.840;2023-07-30T03:02:04;19.50;99.90
25046;DHT22;13044;49.304;12.840;2023-07-30T03:04:34;19.50;99.90
25046;DHT22;13044;49.304;12.840;2023-07-30T03:07:01;19.60;99.90
25046;DHT22;13044;49.304;12.840;2023-07-30T03:09:28;19.60;99.90
25046;DHT22;13044;49.304;12.840;2023-07-30T03:11:55;19.60;99.90
25046;DHT22;13044;49.304;12.840;2023-07-30T03:14:22;19.60;99.90
25046;DHT22;13044;49.304;12.840;2023-07-30T03:16:49;19.60;99.90
25046;DHT22;13044;49.304;12.840;2023-07-30T03:19:16;19.60;99.90
25046;DHT22;13044;49.304;12.840;2023-07-30T03:21:43;19.60;99.90
25046;DHT22;13044;49.304;12.840;2023-07-30T03:24:10;19.60;99.90
25046;DHT22;13044;49.304;12.840;2023-07-30T03:26:36;19.60;99.90
25046;DHT22;13044;49.304;12.840;2023-07-30T03:29:03;19.60;99.90
25046;DHT22;13044;49.304;12.840;2023-07-30T03:31:30;19.60;99.90
25046;DHT22;13044;49.304;12.840;2023-07-30T03:33:58;19.60;99.90
25046;DHT22;13044;49.304;12.840;2023-07-30T03:36:26;19.60;99.90
25046;DHT22;13044;49.304;12.840;2023-07-30T03:38:53;19.60;99.90
25046;DHT22;13044;49.304;12.840;2023-07-30T03:41:19;19.60;99.90
25046;DHT22;13044;49.304;12.840;2023-07-30T03:43:47;19.60;99.90
25046;DHT22;13044;49.304;12.840;2023-07-30T03:46:14;19.60;99.90
25046;DHT22;13044;49.304;12.840;2023-07-30T03:48:41;19.60;99.90
25046;DHT22;13044;49.304;12.840;2023-07-30T03:51:08;19.60;99.90
25046;DHT22;13044;49.304;12.840;2023-07-30T03:53:35;19.60;99.90
25046;DHT22;13044;49.304;12.840;2023-07-30T03:56:02;19.50;99.90
25046;DHT22;13044;49.304;12.840;2023-07-30T03:58:29;19.50;99.90
25046;DHT22;13044;49.304;12.840;2023-07-30T04:00:57;19.50;99.90
25046;DHT22;13044;49.304;12.840;2023-07-30T04:03:24;19.50;99.90
25046;DHT22;13044;49.304;12.840;2023-07-30T04:05:51;19.50;99.90
25046;DHT22;13044;49.304;12.840;2023-07-30T04:08:18;19.50;99.90
25046;DHT22;13044;49.304;12.840;2023-07-30T04:10:45;19.50;99.90
25046;DHT22;13044;49.304;12.840;2023-07-30T04:13:11;19.50;99.90
25046;DHT22;13044;49.304;12.840;2023-07-30T04:15:38;19.40;99.90
25046;DHT22;13044;49.304;12.840;2023-07-30T04:18:05;19.40;99.90
25046;DHT22;13044;49.304;12.840;2023-07-30T04:20:32;19.40;99.90
25046;DHT22;13044;49.304;12.840;2023-07-30T04:22:59;19.40;99.90
25046;DHT22;13044;49.304;12.840;2023-07-30T04:25:26;19.30;99.90
25046;DHT22;13044;49.304;12.840;2023-07-30T04:27:53;19.30;99.90
25046;DHT22;13044;49.304;12.840;2023-07-30T04:30:20;19.30;99.90
25046;DHT22;13044;49.304;12.840;2023-07-30T04:32:46;19.30;99.90
25046;DHT22;13044;49.304;12.840;2023-07-30T04:35:13;19.20;99.90
25046;DHT22;13044;49.304;12.840;2023-07-30T04:37:40;19.20;99.90
25046;DHT22;13044;49.304;12.840;2023-07-30T04:40:08;19.20;99.90
25046;DHT22;13044;49.304;12.840;2023-07-30T04:42:35;19.20;99.90
25046;DHT22;13044;49.304;12.840;2023-07-30T04:45:02;19.20;99.90
25046;DHT22;13044;49.304;12.840;2023-07-30T04:47:29;19.20;99.90
25046;DHT22;13044;49.304;12.840;2023-07-30T04:49:56;19.20;99.90
25046;DHT22;13044;49.304;12.840;2023-07-30T04:52:23;19.20;99.90
25046;DHT22;13044;49.304;12.840;2023-07-30T04:54:50;19.20;99.90
25046;DHT22;13044;49.304;12.840;2023-07-30T04:57:16;19.20;99.90
25046;DHT22;13044;49.304;12.840;2023-07-30T04:59:43;19.20;99.90
25046;DHT22;13044;49.304;12.840;2023-07-30T05:02:10;19.20;99.90
25046;DHT22;13044;49.304;12.840;2023-07-30T05:04:37;19.20;99.90
25046;DHT22;13044;49.304;12.840;2023-07-30T05:07:05;19.10;99.90
25046;DHT22;13044;49.304;12.840;2023-07-30T05:09:32;19.10;99.90
25046;DHT22;13044;49.304;12.840;2023-07-30T05:11:58;19.10;99.90
25046;DHT22;13044;49.304;12.840;2023-07-30T05:14:25;19.00;99.90
25046;DHT22;13044;49.304;12.840;2023-07-30T05:16:52;19.00;99.90
25046;DHT22;13044;49.304;12.840;2023-07-30T05:19:19;19.00;99.90
25046;DHT22;13044;49.304;12.840;2023-07-30T05:21:46;19.00;99.90
25046;DHT22;13044;49.304;12.840;2023-07-30T05:24:13;19.00;99.90
25046;DHT22;13044;49.304;12.840;2023-07-30T05:26:40;19.00;99.90
25046;DHT22;13044;49.304;12.840;2023-07-30T05:29:07;19.00;99.90
25046;DHT22;13044;49.304;12.840;2023-07-30T05:31:34;19.00;99.90
25046;DHT22;13044;49.304;12.840;2023-07-30T05:34:01;18.90;99.90
25046;DHT22;13044;49.304;12.840;2023-07-30T05:36:27;19.00;99.90
25046;DHT22;13044;49.304;12.840;2023-07-30T05:38:54;19.00;99.90
25046;DHT22;13044;49.304;12.840;2023-07-30T05:41:21;19.00;99.90
25046;DHT22;13044;49.304;12.840;2023-07-30T05:43:48;18.90;99.90
25046;DHT22;13044;49.304;12.840;2023-07-30T05:46:15;18.90;99.90
25046;DHT22;13044;49.304;12.840;2023-07-30T05:48:42;18.90;99.90
25046;DHT22;13044;49.304;12.840;2023-07-30T05:51:09;18.90;99.90
25046;DHT22;13044;49.304;12.840;2023-07-30T05:53:36;18.90;99.90
25046;DHT22;13044;49.304;12.840;2023-07-30T05:56:03;18.90;99.90
25046;DHT22;13044;49.304;12.840;2023-07-30T05:58:30;19.00;99.90
25046;DHT22;13044;49.304;12.840;2023-07-30T06:00:57;19.00;99.90
25046;DHT22;13044;49.304;12.840;2023-07-30T06:03:24;19.00;99.90
25046;DHT22;13044;49.304;12.840;2023-07-30T06:05:51;19.00;99.90
25046;DHT22;13044;49.304;12.840;2023-07-30T06:08:18;19.00;99.90
25046;DHT22;13044;49.304;12.840;2023-07-30T06:10:45;19.00;99.90
25046;DHT22;13044;49.304;12.840;2023-07-30T06:13:13;19.00;99.90
25046;DHT22;13044;49.304;12.840;2023-07-30T06:15:40;19.00;99.90
25046;DHT22;13044;49.304;12.840;2023-07-30T06:18:07;19.00;99.90
25046;DHT22;13044;49.304;12.840;2023-07-30T06:20:34;19.10;99.90
25046;DHT22;13044;49.304;12.840;2023-07-30T06:23:01;19.10;99.90
25046;DHT22;13044;49.304;12.840;2023-07-30T06:25:28;19.10;99.90
25046;DHT22;13044;49.304;12.840;2023-07-30T06:27:54;19.10;99.90
25046;DHT22;13044;49.304;12.840;2023-07-30T06:30:24;19.20;99.90
25046;DHT22;13044;49.304;12.840;2023-07-30T06:32:51;19.20;99.90
25046;DHT22;13044;49.304;12.840;2023-07-30T06:35:18;19.20;99.90
25046;DHT22;13044;49.304;12.840;2023-07-30T06:37:45;19.30;99.90
25046;DHT22;13044;49.304;12.840;2023-07-30T06:40:12;19.30;99.90
25046;DHT22;13044;49.304;12.840;2023-07-30T06:42:38;19.30;99.90
25046;DHT22;13044;49.304;12.840;2023-07-30T06:45:06;19.40;99.90
25046;DHT22;13044;49.304;12.840;2023-07-30T06:47:33;19.40;99.90
25046;DHT22;13044;49.304;12.840;2023-07-30T06:50:03;19.40;99.90
25046;DHT22;13044;49.304;12.840;2023-07-30T06:52:31;19.40;99.90
25046;DHT22;13044;49.304;12.840;2023-07-30T06:54:58;19.50;99.90
25046;DHT22;13044;49.304;12.840;2023-07-30T06:57:25;19.50;99.90
25046;DHT22;13044;49.304;12.840;2023-07-30T06:59:52;19.50;99.90
25046;DHT22;13044;49.304;12.840;2023-07-30T07:02:19;19.50;99.90
25046;DHT22;13044;49.304;12.840;2023-07-30T07:04:46;19.60;99.90
25046;DHT22;13044;49.304;12.840;2023-07-30T07:07:13;19.60;99.90
25046;DHT22;13044;49.304;12.840;2023-07-30T07:09:39;19.60;99.90
25046;DHT22;13044;49.304;12.840;2023-07-30T07:12:07;19.60;99.90
25046;DHT22;13044;49.304;12.840;2023-07-30T07:14:34;19.70;99.90
25046;DHT22;13044;49.304;12.840;2023-07-30T07:17:01;19.70;99.90
25046;DHT22;13044;49.304;12.840;2023-07-30T07:19:28;19.70;99.90
25046;DHT22;13044;49.304;12.840;2023-07-30T07:21:55;19.80;99.90
25046;DHT22;13044;49.304;12.840;2023-07-30T07:24:22;19.80;99.90
25046;DHT22;13044;49.304;12.840;2023-07-30T07:26:48;19.80;99.90
25046;DHT22;13044;49.304;12.840;2023-07-30T07:29:15;19.90;99.90
25046;DHT22;13044;49.304;12.840;2023-07-30T07:31:42;19.90;99.90
25046;DHT22;13044;49.304;12.840;2023-07-30T07:34:09;19.90;99.90
25046;DHT22;13044;49.304;12.840;2023-07-30T07:36:37;19.80;99.90
25046;DHT22;13044;49.304;12.840;2023-07-30T07:39:04;19.90;99.90
25046;DHT22;13044;49.304;12.840;2023-07-30T07:41:31;19.90;99.90
25046;DHT22;13044;49.304;12.840;2023-07-30T07:43:59;19.90;99.90
25046;DHT22;13044;49.304;12.840;2023-07-30T07:46:25;19.90;99.90
25046;DHT22;13044;49.304;12.840;2023-07-30T07:48:54;19.90;99.90
25046;DHT22;13044;49.304;12.840;2023-07-30T07:51:21;20.00;99.90
25046;DHT22;13044;49.304;12.840;2023-07-30T07:53:47;20.00;99.90
25046;DHT22;13044;49.304;12.840;2023-07-30T07:56:14;20.00;99.90
25046;DHT22;13044;49.304;12.840;2023-07-30T07:58:41;20.10;99.90
25046;DHT22;13044;49.304;12.840;2023-07-30T08:01:09;20.20;99.90
25046;DHT22;13044;49.304;12.840;2023-07-30T08:03:36;20.40;99.90
25046;DHT22;13044;49.304;12.840;2023-07-30T08:06:03;20.50;99.90
25046;DHT22;13044;49.304;12.840;2023-07-30T08:08:30;20.60;99.90
25046;DHT22;13044;49.304;12.840;2023-07-30T08:10:57;20.70;99.90
25046;DHT22;13044;49.304;12.840;2023-07-30T08:13:24;20.70;99.90
25046;DHT22;13044;49.304;12.840;2023-07-30T08:15:51;20.80;99.90
25046;DHT22;13044;49.304;12.840;2023-07-30T08:18:18;20.90;99.90
25046;DHT22;13044;49.304;12.840;2023-07-30T08:20:45;20.90;99.90
25046;DHT22;13044;49.304;12.840;2023-07-30T08:23:12;21.00;99.90
25046;DHT22;13044;49.304;12.840;2023-07-30T08:25:38;21.00;99.90
25046;DHT22;13044;49.304;12.840;2023-07-30T08:28:05;21.00;99.90
25046;DHT22;13044;49.304;12.840;2023-07-30T08:30:33;21.20;99.90
25046;DHT22;13044;49.304;12.840;2023-07-30T08:33:00;21.30;99.90
25046;DHT22;13044;49.304;12.840;2023-07-30T08:35:27;21.50;99.90
25046;DHT22;13044;49.304;12.840;2023-07-30T08:37:54;21.70;99.90
25046;DHT22;13044;49.304;12.840;2023-07-30T08:40:22;21.80;99.90
25046;DHT22;13044;49.304;12.840;2023-07-30T08:42:52;21.90;99.90
25046;DHT22;13044;49.304;12.840;2023-07-30T08:45:20;22.10;99.90
25046;DHT22;13044;49.304;12.840;2023-07-30T08:48:12;22.20;99.90
25046;DHT22;13044;49.304;12.840;2023-07-30T08:51:54;22.40;99.90
25046;DHT22;13044;49.304;12.840;2023-07-30T08:54:22;22.50;99.90
25046;DHT22;13044;49.304;12.840;2023-07-30T08:56:49;22.60;99.90
25046;DHT22;13044;49.304;12.840;2023-07-30T08:59:18;22.60;99.90
25046;DHT22;13044;49.304;12.840;2023-07-30T09:01:51;22.80;99.90
25046;DHT22;13044;49.304;12.840;2023-07-30T09:04:18;22.80;99.90
25046;DHT22;13044;49.304;12.840;2023-07-30T09:06:48;22.80;99.90
25046;DHT22;13044;49.304;12.840;2023-07-30T09:09:19;22.80;99.90
25046;DHT22;13044;49.304;12.840;2023-07-30T09:11:52;22.80;99.90
25046;DHT22;13044;49.304;12.840;2023-07-30T09:14:23;22.80;99.90
25046;DHT22;13044;49.304;12.840;2023-07-30T09:16:56;22.70;99.90
25046;DHT22;13044;49.304;12.840;2023-07-30T09:19:24;22.70;99.90
25046;DHT22;13044;49.304;12.840;2023-07-30T09:21:51;22.70;99.90
25046;DHT22;13044;49.304;12.840;2023-07-30T09:24:22;22.70;99.90
25046;DHT22;13044;49.304;12.840;2023-07-30T09:26:49;22.80;99.90
25046;DHT22;13044;49.304;12.840;2023-07-30T09:29:16;22.90;99.90
25046;DHT22;13044;49.304;12.840;2023-07-30T09:31:53;23.00;99.90
25046;DHT22;13044;49.304;12.840;2023-07-30T09:34:23;23.10;99.90
25046;DHT22;13044;49.304;12.840;2023-07-30T09:36:53;23.20;99.90
25046;DHT22;13044;49.304;12.840;2023-07-30T09:39:22;23.20;99.90
25046;DHT22;13044;49.304;12.840;2023-07-30T09:41:52;23.10;99.90
25046;DHT22;13044;49.304;12.840;2023-07-30T09:44:20;23.00;99.90
25046;DHT22;13044;49.304;12.840;2023-07-30T09:46:49;22.90;99.90
25046;DHT22;13044;49.304;12.840;2023-07-30T09:49:17;22.90;99.90
25046;DHT22;13044;49.304;12.840;2023-07-30T09:51:45;22.80;99.90
25046;DHT22;13044;49.304;12.840;2023-07-30T09:54:13;22.70;99.90
25046;DHT22;13044;49.304;12.840;2023-07-30T09:56:42;22.70;99.90
25046;DHT22;13044;49.304;12.840;2023-07-30T09:59:09;22.70;99.90
25046;DHT22;13044;49.304;12.840;2023-07-30T10:01:41;22.70;99.90
25046;DHT22;13044;49.304;12.840;2023-07-30T10:04:12;22.70;99.90
25046;DHT22;13044;49.304;12.840;2023-07-30T10:06:49;22.70;99.90
25046;DHT22;13044;49.304;12.840;2023-07-30T10:09:20;22.70;99.90
25046;DHT22;13044;49.304;12.840;2023-07-30T10:11:51;22.80;99.90
25046;DHT22;13044;49.304;12.840;2023-07-30T10:14:22;22.90;99.90
25046;DHT22;13044;49.304;12.840;2023-07-30T10:16:54;23.00;99.90
25046;DHT22;13044;49.304;12.840;2023-07-30T10:19:25;23.20;99.90
25046;DHT22;13044;49.304;12.840;2023-07-30T10:24:41;23.50;99.90
25046;DHT22;13044;49.304;12.840;2023-07-30T10:27:28;23.70;99.90
25046;DHT22;13044;49.304;12.840;2023-07-30T10:32:41;23.90;99.90
25046;DHT22;13044;49.304;12.840;2023-07-30T10:38:19;24.10;99.90
25046;DHT22;13044;49.304;12.840;2023-07-30T10:41:07;24.10;99.90
25046;DHT22;13044;49.304;12.840;2023-07-30T10:43:49;24.10;99.90
25046;DHT22;13044;49.304;12.840;2023-07-30T10:46:18;24.20;99.90
25046;DHT22;13044;49.304;12.840;2023-07-30T10:48:47;24.30;99.90
25046;DHT22;13044;49.304;12.840;2023-07-30T10:51:16;24.30;99.90
25046;DHT22;13044;49.304;12.840;2023-07-30T10:53:45;24.30;99.90
25046;DHT22;13044;49.304;12.840;2023-07-30T10:56:17;24.30;99.90
25046;DHT22;13044;49.304;12.840;2023-07-30T10:58:52;24.30;99.90
25046;DHT22;13044;49.304;12.840;2023-07-30T11:01:20;24.30;99.90
25046;DHT22;13044;49.304;12.840;2023-07-30T11:03:50;24.30;99.90
25046;DHT22;13044;49.304;12.840;2023-07-30T11:06:26;24.30;99.90
25046;DHT22;13044;49.304;12.840;2023-07-30T11:08:53;24.30;99.90
25046;DHT22;13044;49.304;12.840;2023-07-30T11:11:20;24.20;99.90
25046;DHT22;13044;49.304;12.840;2023-07-30T11:13:50;24.20;99.90
25046;DHT22;13044;49.304;12.840;2023-07-30T11:16:17;24.10;99.90
25046;DHT22;13044;49.304;12.840;2023-07-30T11:18:44;24.00;99.90
25046;DHT22;13044;49.304;12.840;2023-07-30T11:21:15;24.00;99.90
25046;DHT22;13044;49.304;12.840;2023-07-30T11:23:44;23.80;99.90
25046;DHT22;13044;49.304;12.840;2023-07-30T11:26:16;23.70;99.90
25046;DHT22;13044;49.304;12.840;2023-07-30T11:28:45;23.70;99.90
25046;DHT22;13044;49.304;12.840;2023-07-30T11:31:17;23.60;99.90
25046;DHT22;13044;49.304;12.840;2023-07-30T11:33:49;23.50;99.90
25046;DHT22;13044;49.304;12.840;2023-07-30T11:36:20;23.50;99.90
25046;DHT22;13044;49.304;12.840;2023-07-30T11:38:49;23.50;99.90
25046;DHT22;13044;49.304;12.840;2023-07-30T11:41:19;23.60;99.90
25046;DHT22;13044;49.304;12.840;2023-07-30T11:43:48;23.70;99.90
25046;DHT22;13044;49.304;12.840;2023-07-30T11:46:17;23.90;99.90
25046;DHT22;13044;49.304;12.840;2023-07-30T11:48:49;24.00;99.90
25046;DHT22;13044;49.304;12.840;2023-07-30T11:51:24;24.10;99.90
25046;DHT22;13044;49.304;12.840;2023-07-30T11:56:30;24.20;99.90
25046;DHT22;13044;49.304;12.840;2023-07-30T11:59:00;24.30;99.90
25046;DHT22;13044;49.304;12.840;2023-07-30T12:01:30;24.20;99.90
25046;DHT22;13044;49.304;12.840;2023-07-30T12:03:59;24.20;99.90
25046;DHT22;13044;49.304;12.840;2023-07-30T12:06:45;24.10;99.90
25046;DHT22;13044;49.304;12.840;2023-07-30T12:09:20;24.20;99.90
25046;DHT22;13044;49.304;12.840;2023-07-30T12:11:57;24.20;99.90
25046;DHT22;13044;49.304;12.840;2023-07-30T12:14:44;24.30;99.90
25046;DHT22;13044;49.304;12.840;2023-07-30T12:17:16;24.20;99.90
25046;DHT22;13044;49.304;12.840;2023-07-30T12:19:43;24.20;99.90
25046;DHT22;13044;49.304;12.840;2023-07-30T12:22:10;24.10;99.90
25046;DHT22;13044;49.304;12.840;2023-07-30T12:24:37;24.20;99.90
25046;DHT22;13044;49.304;12.840;2023-07-30T12:27:05;24.10;99.90
25046;DHT22;13044;49.304;12.840;2023-07-30T12:29:32;24.00;99.90
25046;DHT22;13044;49.304;12.840;2023-07-30T12:31:58;24.00;99.90
25046;DHT22;13044;49.304;12.840;2023-07-30T12:34:29;24.00;99.90
25046;DHT22;13044;49.304;12.840;2023-07-30T12:36:56;23.90;99.90
25046;DHT22;13044;49.304;12.840;2023-07-30T12:39:24;23.80;99.90
25046;DHT22;13044;49.304;12.840;2023-07-30T12:41:51;23.80;99.90
25046;DHT22;13044;49.304;12.840;2023-07-30T12:44:18;23.70;99.90
25046;DHT22;13044;49.304;12.840;2023-07-30T12:46:45;23.70;99.90
25046;DHT22;13044;49.304;12.840;2023-07-30T12:49:11;23.60;99.90
25046;DHT22;13044;49.304;12.840;2023-07-30T12:51:39;23.40;99.90
25046;DHT22;13044;49.304;12.840;2023-07-30T12:54:06;23.20;99.90
25046;DHT22;13044;49.304;12.840;2023-07-30T12:56:33;23.10;99.90
25046;DHT22;13044;49.304;12.840;2023-07-30T12:59:03;23.10;99.90
25046;DHT22;13044;49.304;12.840;2023-07-30T13:01:30;23.00;99.90
25046;DHT22;13044;49.304;12.840;2023-07-30T13:03:57;22.90;99.90
25046;DHT22;13044;49.304;12.840;2023-07-30T13:06:24;22.90;99.90
25046;DHT22;13044;49.304;12.840;2023-07-30T13:08:50;22.80;99.90
25046;DHT22;13044;49.304;12.840;2023-07-30T13:11:17;22.70;99.90
25046;DHT22;13044;49.304;12.840;2023-07-30T13:13:45;22.70;99.90
25046;DHT22;13044;49.304;12.840;2023-07-30T13:16:12;22.70;99.90
25046;DHT22;13044;49.304;12.840;2023-07-30T13:18:38;22.50;99.90
25046;DHT22;13044;49.304;12.840;2023-07-30T13:21:05;22.50;99.90
25046;DHT22;13044;49.304;12.840;2023-07-30T13:23:32;22.40;99.90
25046;DHT22;13044;49.304;12.840;2023-07-30T13:26:00;22.40;99.90
25046;DHT22;13044;49.304;12.840;2023-07-30T13:28:28;22.40;99.90
25046;DHT22;13044;49.304;12.840;2023-07-30T13:30:55;22.50;99.90
25046;DHT22;13044;49.304;12.840;2023-07-30T13:33:23;22.50;99.90
25046;DHT22;13044;49.304;12.840;2023-07-30T13:35:50;22.60;99.90
25046;DHT22;13044;49.304;12.840;2023-07-30T13:38:17;22.70;99.90
25046;DHT22;13044;49.304;12.840;2023-07-30T13:40:44;22.60;99.90
25046;DHT22;13044;49.304;12.840;2023-07-30T13:43:11;22.70;99.90
25046;DHT22;13044;49.304;12.840;2023-07-30T13:45:38;22.70;99.90
25046;DHT22;13044;49.304;12.840;2023-07-30T13:48:05;22.60;99.90
25046;DHT22;13044;49.304;12.840;2023-07-30T13:50:32;22.60;99.90
25046;DHT22;13044;49.304;12.840;2023-07-30T13:52:59;22.60;99.90
25046;DHT22;13044;49.304;12.840;2023-07-30T13:55:26;22.70;99.90
25046;DHT22;13044;49.304;12.840;2023-07-30T13:57:53;22.90;99.90
25046;DHT22;13044;49.304;12.840;2023-07-30T14:00:20;23.10;99.90
25046;DHT22;13044;49.304;12.840;2023-07-30T14:02:47;23.20;99.90
25046;DHT22;13044;49.304;12.840;2023-07-30T14:05:15;23.30;99.90
25046;DHT22;13044;49.304;12.840;2023-07-30T14:07:42;23.30;99.90
25046;DHT22;13044;49.304;12.840;2023-07-30T14:10:09;23.40;99.90
25046;DHT22;13044;49.304;12.840;2023-07-30T14:12:36;23.60;99.90
25046;DHT22;13044;49.304;12.840;2023-07-30T14:15:03;23.70;99.90
25046;DHT22;13044;49.304;12.840;2023-07-30T14:17:32;23.70;99.90
25046;DHT22;13044;49.304;12.840;2023-07-30T14:19:59;23.80;99.90
25046;DHT22;13044;49.304;12.840;2023-07-30T14:22:26;23.90;99.90
25046;DHT22;13044;49.304;12.840;2023-07-30T14:24:53;23.90;99.90
25046;DHT22;13044;49.304;12.840;2023-07-30T14:27:20;24.00;99.90
25046;DHT22;13044;49.304;12.840;2023-07-30T14:29:47;23.90;99.90
25046;DHT22;13044;49.304;12.840;2023-07-30T14:32:14;24.00;99.90
25046;DHT22;13044;49.304;12.840;2023-07-30T14:34:41;24.10;99.90
25046;DHT22;13044;49.304;12.840;2023-07-30T14:37:08;24.10;99.90
25046;DHT22;13044;49.304;12.840;2023-07-30T14:39:36;24.10;99.90
25046;DHT22;13044;49.304;12.840;2023-07-30T14:42:03;24.10;99.90
25046;DHT22;13044;49.304;12.840;2023-07-30T14:44:30;24.10;99.90
25046;DHT22;13044;49.304;12.840;2023-07-30T14:46:57;24.10;99.90
25046;DHT22;13044;49.304;12.840;2023-07-30T14:49:25;24.10;99.90
25046;DHT22;13044;49.304;12.840;2023-07-30T14:51:52;24.00;99.90
25046;DHT22;13044;49.304;12.840;2023-07-30T14:54:19;23.90;99.90
25046;DHT22;13044;49.304;12.840;2023-07-30T14:56:46;23.90;99.90
25046;DHT22;13044;49.304;12.840;2023-07-30T14:59:13;23.80;99.90
25046;DHT22;13044;49.304;12.840;2023-07-30T15:01:40;23.90;99.90
25046;DHT22;13044;49.304;12.840;2023-07-30T15:04:07;23.90;99.90
25046;DHT22;13044;49.304;12.840;2023-07-30T15:06:35;23.90;99.90
25046;DHT22;13044;49.304;12.840;2023-07-30T15:09:02;23.90;99.90
25046;DHT22;13044;49.304;12.840;2023-07-30T15:11:29;23.80;99.90
25046;DHT22;13044;49.304;12.840;2023-07-30T15:13:56;23.70;99.90
25046;DHT22;13044;49.304;12.840;2023-07-30T15:16:23;23.70;99.90
25046;DHT22;13044;49.304;12.840;2023-07-30T15:18:50;23.70;99.90
25046;DHT22;13044;49.304;12.840;2023-07-30T15:21:18;23.60;99.90
25046;DHT22;13044;49.304;12.840;2023-07-30T15:23:45;23.50;99.90
25046;DHT22;13044;49.304;12.840;2023-07-30T15:26:12;23.50;99.90
25046;DHT22;13044;49.304;12.840;2023-07-30T15:28:40;23.50;99.90
25046;DHT22;13044;49.304;12.840;2023-07-30T15:31:08;23.50;99.90
25046;DHT22;13044;49.304;12.840;2023-07-30T15:33:35;23.40;99.90